sensor_id;sensor_type;location;lat;lon;timestamp;pressure;altitude;pressure_sealevel;temperature;humidity
18533;BME280;9396;51.510;11.934;2023-05-02T00:00:42;100370.69;;;12.07;92.28
18533;BME280;9396;51.510;11.934;2023-05-02T00:03:09;100369.22;;;12.05;92.87
18533;BME280;9396;51.510;11.934;2023-05-02T00:05:37;100371.53;;;12.00;92.81
18533;BME280;9396;51.510;11.934;2023-05-02T00:08:04;100372.50;;;11.99;92.55
18533;BME280;9396;51.510;11.934;2023-05-02T00:10:31;100377.34;;;11.95;92.71
18533;BME280;9396;51.510;11.934;2023-05-02T00:12:59;100376.50;;;11.87;92.84
18533;BME280;9396;51.510;11.934;2023-05-02T00:15:26;100376.31;;;11.88;92.23
18533;BME280;9396;51.510;11.934;2023-05-02T00:17:53;100372.66;;;11.89;92.22
18533;BME280;9396;51.510;11.934;2023-05-02T00:20:19;100375.19;;;11.91;92.25
18533;BME280;9396;51.510;11.934;2023-05-02T00:22:46;100331.47;;;11.67;91.73
18533;BME280;9396;51.510;11.934;2023-05-02T00:25:13;100371.66;;;11.90;91.84
18533;BME280;9396;51.510;11.934;2023-05-02T00:27:42;100368.00;;;11.91;91.84
18533;BME280;9396;51.510;11.934;2023-05-02T00:30:13;100367.50;;;11.88;92.03
18533;BME280;9396;51.510;11.934;2023-05-02T00:32:39;100368.31;;;11.80;91.90
18533;BME280;9396;51.510;11.934;2023-05-02T00:35:07;100366.81;;;11.77;92.12
18533;BME280;9396;51.510;11.934;2023-05-02T00:37:33;100367.56;;;11.62;91.47
18533;BME280;9396;51.510;11.934;2023-05-02T00:40:01;100371.19;;;11.53;91.68
18533;BME280;9396;51.510;11.934;2023-05-02T00:42:27;100371.97;;;11.45;92.12
18533;BME280;9396;51.510;11.934;2023-05-02T00:44:55;100377.88;;;11.57;92.47
18533;BME280;9396;51.510;11.934;2023-05-02T00:47:24;100368.19;;;11.56;92.00
18533;BME280;9396;51.510;11.934;2023-05-02T00:49:51;100369.22;;;11.63;91.62
18533;BME280;9396;51.510;11.934;2023-05-02T00:52:18;100368.66;;;11.85;91.21
18533;BME280;9396;51.510;11.934;2023-05-02T00:54:46;100372.00;;;11.95;90.34
18533;BME280;9396;51.510;11.934;2023-05-02T00:57:12;100380.34;;;11.92;89.81
18533;BME280;9396;51.510;11.934;2023-05-02T00:59:39;100381.34;;;11.99;90.27
18533;BME280;9396;51.510;11.934;2023-05-02T01:02:14;100379.66;;;11.98;90.58
18533;BME280;9396;51.510;11.934;2023-05-02T01:04:55;100390.94;;;11.76;91.22
18533;BME280;9396;51.510;11.934;2023-05-02T01:07:37;100390.75;;;11.69;91.97
18533;BME280;9396;51.510;11.934;2023-05-02T01:10:15;100392.09;;;11.73;92.73
18533;BME280;9396;51.510;11.934;2023-05-02T01:12:47;100388.63;;;11.81;93.28
18533;BME280;9396;51.510;11.934;2023-05-02T01:15:21;100392.44;;;11.78;93.53
18533;BME280;9396;51.510;11.934;2023-05-02T01:17:49;100397.47;;;11.81;94.25
18533;BME280;9396;51.510;11.934;2023-05-02T01:20:20;100398.31;;;11.90;94.43
18533;BME280;9396;51.510;11.934;2023-05-02T01:22:49;100397.16;;;11.93;94.08
18533;BME280;9396;51.510;11.934;2023-05-02T01:25:26;100391.28;;;11.73;94.69
18533;BME280;9396;51.510;11.934;2023-05-02T01:28:11;100399.31;;;11.89;94.97
18533;BME280;9396;51.510;11.934;2023-05-02T01:30:43;100406.97;;;11.84;95.46
18533;BME280;9396;51.510;11.934;2023-05-02T01:33:13;100405.13;;;11.84;95.39
18533;BME280;9396;51.510;11.934;2023-05-02T01:35:42;100405.81;;;11.95;95.59
18533;BME280;9396;51.510;11.934;2023-05-02T01:38:13;100401.00;;;11.98;95.69
18533;BME280;9396;51.510;11.934;2023-05-02T01:40:42;100400.03;;;12.07;95.02
18533;BME280;9396;51.510;11.934;2023-05-02T01:43:11;100414.88;;;12.10;95.52
18533;BME280;9396;51.510;11.934;2023-05-02T01:45:38;100408.69;;;12.09;95.47
18533;BME280;9396;51.510;11.934;2023-05-02T01:48:08;100403.22;;;12.19;95.19
18533;BME280;9396;51.510;11.934;2023-05-02T01:50:36;100402.88;;;12.14;95.98
18533;BME280;9396;51.510;11.934;2023-05-02T01:53:07;100410.41;;;12.26;95.67
18533;BME280;9396;51.510;11.934;2023-05-02T01:55:36;100409.94;;;12.39;94.79
18533;BME280;9396;51.510;11.934;2023-05-02T01:58:04;100405.75;;;12.36;93.93
18533;BME280;9396;51.510;11.934;2023-05-02T02:00:32;100412.09;;;12.35;94.22
18533;BME280;9396;51.510;11.934;2023-05-02T02:03:00;100418.06;;;12.37;94.14
18533;BME280;9396;51.510;11.934;2023-05-02T02:05:29;100422.25;;;12.48;93.66
18533;BME280;9396;51.510;11.934;2023-05-02T02:07:56;100430.25;;;12.48;93.31
18533;BME280;9396;51.510;11.934;2023-05-02T02:10:25;100429.59;;;12.54;94.08
18533;BME280;9396;51.510;11.934;2023-05-02T02:13:00;100439.28;;;12.47;93.49
18533;BME280;9396;51.510;11.934;2023-05-02T02:15:33;100437.78;;;12.52;93.43
18533;BME280;9396;51.510;11.934;2023-05-02T02:18:03;100440.78;;;12.49;93.00
18533;BME280;9396;51.510;11.934;2023-05-02T02:20:33;100443.78;;;12.46;93.36
18533;BME280;9396;51.510;11.934;2023-05-02T02:23:05;100447.44;;;12.53;93.21
18533;BME280;9396;51.510;11.934;2023-05-02T02:25:33;100450.59;;;12.41;92.90
18533;BME280;9396;51.510;11.934;2023-05-02T02:28:00;100446.91;;;12.34;92.27
18533;BME280;9396;51.510;11.934;2023-05-02T02:30:27;100453.25;;;12.41;91.42
18533;BME280;9396;51.510;11.934;2023-05-02T02:32:54;100451.59;;;12.48;91.08
18533;BME280;9396;51.510;11.934;2023-05-02T02:35:21;100460.47;;;12.56;91.03
18533;BME280;9396;51.510;11.934;2023-05-02T02:37:53;100466.50;;;12.58;90.47
18533;BME280;9396;51.510;11.934;2023-05-02T02:40:28;100462.81;;;12.59;90.93
18533;BME280;9396;51.510;11.934;2023-05-02T02:43:04;100467.97;;;12.53;90.47
18533;BME280;9396;51.510;11.934;2023-05-02T02:45:36;100468.81;;;12.61;90.50
18533;BME280;9396;51.510;11.934;2023-05-02T02:48:12;100469.47;;;12.55;90.48
18533;BME280;9396;51.510;11.934;2023-05-02T02:50:51;100474.28;;;12.52;90.15
18533;BME280;9396;51.510;11.934;2023-05-02T02:53:32;100477.13;;;12.42;90.33
18533;BME280;9396;51.510;11.934;2023-05-02T02:56:03;100471.78;;;12.50;90.85
18533;BME280;9396;51.510;11.934;2023-05-02T02:58:40;100475.28;;;12.43;90.44
18533;BME280;9396;51.510;11.934;2023-05-02T03:01:14;100378.06;;;11.63;90.54
18533;BME280;9396;51.510;11.934;2023-05-02T03:03:43;100481.75;;;12.32;91.03
18533;BME280;9396;51.510;11.934;2023-05-02T03:06:11;100490.47;;;12.42;90.59
18533;BME280;9396;51.510;11.934;2023-05-02T03:08:40;100495.13;;;12.40;91.14
18533;BME280;9396;51.510;11.934;2023-05-02T03:11:07;100487.13;;;12.40;91.15
18533;BME280;9396;51.510;11.934;2023-05-02T03:13:35;100483.78;;;12.38;92.10
18533;BME280;9396;51.510;11.934;2023-05-02T03:19:06;100494.75;;;12.19;97.06
18533;BME280;9396;51.510;11.934;2023-05-02T03:21:34;100498.06;;;12.21;98.71
18533;BME280;9396;51.510;11.934;2023-05-02T03:24:03;100505.38;;;12.11;100.00
18533;BME280;9396;51.510;11.934;2023-05-02T03:26:30;100505.41;;;12.19;100.00
18533;BME280;9396;51.510;11.934;2023-05-02T03:28:56;100516.94;;;12.28;100.00
18533;BME280;9396;51.510;11.934;2023-05-02T03:31:23;100517.28;;;12.33;100.00
18533;BME280;9396;51.510;11.934;2023-05-02T03:33:50;100509.09;;;12.34;100.00
18533;BME280;9396;51.510;11.934;2023-05-02T03:36:17;100519.63;;;12.36;100.00
18533;BME280;9396;51.510;11.934;2023-05-02T03:38:44;100516.78;;;12.29;100.00
18533;BME280;9396;51.510;11.934;2023-05-02T03:41:12;100523.75;;;12.30;100.00
18533;BME280;9396;51.510;11.934;2023-05-02T03:43:38;100528.78;;;12.33;100.00
18533;BME280;9396;51.510;11.934;2023-05-02T03:46:06;100532.13;;;12.35;100.00
18533;BME280;9396;51.510;11.934;2023-05-02T03:48:33;100536.94;;;12.32;100.00
18533;BME280;9396;51.510;11.934;2023-05-02T03:51:01;100537.09;;;12.30;100.00
18533;BME280;9396;51.510;11.934;2023-05-02T03:53:28;100548.53;;;12.15;100.00
18533;BME280;9396;51.510;11.934;2023-05-02T03:55:56;100413.63;;;11.21;100.00
18533;BME280;9396;51.510;11.934;2023-05-02T03:58:24;100558.44;;;11.89;100.00
18533;BME280;9396;51.510;11.934;2023-05-02T04:00:51;100556.88;;;11.78;100.00
18533;BME280;9396;51.510;11.934;2023-05-02T04:03:19;100554.19;;;11.78;100.00
18533;BME280;9396;51.510;11.934;2023-05-02T04:05:46;100555.16;;;11.69;100.00
18533;BME280;9396;51.510;11.934;2023-05-02T04:08:12;100571.84;;;11.79;100.00
18533;BME280;9396;51.510;11.934;2023-05-02T04:10:39;100572.69;;;11.79;100.00
18533;BME280;9396;51.510;11.934;2023-05-02T04:13:06;100563.03;;;11.61;100.00
18533;BME280;9396;51.510;11.934;2023-05-02T04:15:34;100576.34;;;11.61;100.00
18533;BME280;9396;51.510;11.934;2023-05-02T04:18:00;100582.84;;;11.58;100.00
18533;BME280;9396;51.510;11.934;2023-05-02T04:20:28;100582.69;;;11.60;100.00
18533;BME280;9396;51.510;11.934;2023-05-02T04:22:54;100583.44;;;11.70;100.00
18533;BME280;9396;51.510;11.934;2023-05-02T04:25:21;100590.59;;;11.69;100.00
18533;BME280;9396;51.510;11.934;2023-05-02T04:27:48;100588.69;;;11.79;100.00
18533;BME280;9396;51.510;11.934;2023-05-02T04:30:15;100594.72;;;11.90;100.00
18533;BME280;9396;51.510;11.934;2023-05-02T04:32:43;100593.28;;;11.95;100.00
18533;BME280;9396;51.510;11.934;2023-05-02T04:35:09;100600.22;;;11.88;100.00
18533;BME280;9396;51.510;11.934;2023-05-02T04:37:36;100601.94;;;11.97;100.00
18533;BME280;9396;51.510;11.934;2023-05-02T04:40:03;100606.16;;;12.00;100.00
18533;BME280;9396;51.510;11.934;2023-05-02T04:42:30;100611.66;;;12.06;100.00
18533;BME280;9396;51.510;11.934;2023-05-02T04:44:57;100609.47;;;12.02;100.00
18533;BME280;9396;51.510;11.934;2023-05-02T04:47:23;100611.59;;;11.98;100.00
18533;BME280;9396;51.510;11.934;2023-05-02T04:49:51;100622.91;;;11.92;100.00
18533;BME280;9396;51.510;11.934;2023-05-02T04:52:18;100631.66;;;11.76;100.00
18533;BME280;9396;51.510;11.934;2023-05-02T04:54:45;100629.72;;;11.87;100.00
18533;BME280;9396;51.510;11.934;2023-05-02T04:57:11;100642.72;;;11.90;100.00
18533;BME280;9396;51.510;11.934;2023-05-02T04:59:38;100648.16;;;11.80;100.00
18533;BME280;9396;51.510;11.934;2023-05-02T05:02:05;100659.03;;;11.87;100.00
18533;BME280;9396;51.510;11.934;2023-05-02T05:04:32;100657.81;;;11.81;100.00
18533;BME280;9396;51.510;11.934;2023-05-02T05:07:00;100661.84;;;11.85;100.00
18533;BME280;9396;51.510;11.934;2023-05-02T05:09:27;100667.59;;;11.72;100.00
18533;BME280;9396;51.510;11.934;2023-05-02T05:11:53;100668.03;;;11.68;100.00
18533;BME280;9396;51.510;11.934;2023-05-02T05:14:20;100675.88;;;11.69;100.00
18533;BME280;9396;51.510;11.934;2023-05-02T05:16:46;100675.63;;;11.63;100.00
18533;BME280;9396;51.510;11.934;2023-05-02T05:19:13;100681.34;;;11.68;100.00
18533;BME280;9396;51.510;11.934;2023-05-02T05:21:40;100681.34;;;11.68;100.00
18533;BME280;9396;51.510;11.934;2023-05-02T05:24:08;100677.31;;;11.64;100.00
18533;BME280;9396;51.510;11.934;2023-05-02T05:26:34;100687.13;;;11.63;100.00
18533;BME280;9396;51.510;11.934;2023-05-02T05:29:01;100689.81;;;11.81;100.00
18533;BME280;9396;51.510;11.934;2023-05-02T05:31:28;100698.00;;;11.88;100.00
18533;BME280;9396;51.510;11.934;2023-05-02T05:33:54;100707.06;;;11.95;100.00
18533;BME280;9396;51.510;11.934;2023-05-02T05:36:21;100702.34;;;12.06;100.00
18533;BME280;9396;51.510;11.934;2023-05-02T05:38:48;100705.31;;;12.03;100.00
18533;BME280;9396;51.510;11.934;2023-05-02T05:41:16;100715.13;;;12.03;100.00
18533;BME280;9396;51.510;11.934;2023-05-02T05:43:43;100716.78;;;12.04;100.00
18533;BME280;9396;51.510;11.934;2023-05-02T05:46:09;100720.00;;;12.07;100.00
18533;BME280;9396;51.510;11.934;2023-05-02T05:48:36;100721.03;;;12.14;100.00
18533;BME280;9396;51.510;11.934;2023-05-02T05:51:03;100725.16;;;12.09;100.00
18533;BME280;9396;51.510;11.934;2023-05-02T05:53:30;100731.03;;;12.12;100.00
18533;BME280;9396;51.510;11.934;2023-05-02T05:55:57;100731.63;;;12.24;100.00
18533;BME280;9396;51.510;11.934;2023-05-02T05:58:25;100740.22;;;12.35;99.41
18533;BME280;9396;51.510;11.934;2023-05-02T06:00:51;100742.31;;;12.32;99.70
18533;BME280;9396;51.510;11.934;2023-05-02T06:03:19;100747.09;;;12.20;100.00
18533;BME280;9396;51.510;11.934;2023-05-02T06:05:45;100749.41;;;12.15;98.85
18533;BME280;9396;51.510;11.934;2023-05-02T06:08:12;100756.91;;;12.20;98.16
18533;BME280;9396;51.510;11.934;2023-05-02T06:10:39;100764.38;;;12.16;97.38
18533;BME280;9396;51.510;11.934;2023-05-02T06:13:05;100770.56;;;12.17;98.10
18533;BME280;9396;51.510;11.934;2023-05-02T06:15:34;100777.44;;;12.19;98.56
18533;BME280;9396;51.510;11.934;2023-05-02T06:18:00;100778.53;;;12.34;97.81
18533;BME280;9396;51.510;11.934;2023-05-02T06:20:27;100779.44;;;12.43;98.40
18533;BME280;9396;51.510;11.934;2023-05-02T06:22:54;100782.94;;;12.43;98.35
18533;BME280;9396;51.510;11.934;2023-05-02T06:25:20;100786.75;;;12.41;99.04
18533;BME280;9396;51.510;11.934;2023-05-02T06:27:47;100785.28;;;12.46;98.67
18533;BME280;9396;51.510;11.934;2023-05-02T06:30:14;100790.94;;;12.43;98.18
18533;BME280;9396;51.510;11.934;2023-05-02T06:32:42;100794.97;;;12.47;97.67
18533;BME280;9396;51.510;11.934;2023-05-02T06:35:09;100803.28;;;12.44;97.55
18533;BME280;9396;51.510;11.934;2023-05-02T06:37:36;100812.66;;;12.48;97.80
18533;BME280;9396;51.510;11.934;2023-05-02T06:40:03;100809.66;;;12.51;97.74
18533;BME280;9396;51.510;11.934;2023-05-02T06:42:30;100813.72;;;12.55;98.66
18533;BME280;9396;51.510;11.934;2023-05-02T06:44:56;100821.72;;;12.55;96.60
18533;BME280;9396;51.510;11.934;2023-05-02T06:47:23;100814.72;;;12.54;96.74
18533;BME280;9396;51.510;11.934;2023-05-02T06:49:51;100827.03;;;12.55;98.07
18533;BME280;9396;51.510;11.934;2023-05-02T06:52:18;100834.16;;;12.47;97.83
18533;BME280;9396;51.510;11.934;2023-05-02T06:54:45;100839.34;;;12.48;98.43
18533;BME280;9396;51.510;11.934;2023-05-02T06:57:11;100849.41;;;12.54;99.22
18533;BME280;9396;51.510;11.934;2023-05-02T06:59:38;100861.97;;;12.44;100.00
18533;BME280;9396;51.510;11.934;2023-05-02T07:02:05;100855.97;;;12.07;100.00
18533;BME280;9396;51.510;11.934;2023-05-02T07:04:32;100867.28;;;12.01;100.00
18533;BME280;9396;51.510;11.934;2023-05-02T07:07:00;100871.78;;;11.73;100.00
18533;BME280;9396;51.510;11.934;2023-05-02T07:09:26;100873.88;;;11.79;100.00
18533;BME280;9396;51.510;11.934;2023-05-02T07:11:53;100875.69;;;11.79;100.00
18533;BME280;9396;51.510;11.934;2023-05-02T07:14:19;100879.44;;;11.86;100.00
18533;BME280;9396;51.510;11.934;2023-05-02T07:16:46;100873.41;;;11.84;100.00
18533;BME280;9396;51.510;11.934;2023-05-02T07:19:14;100892.31;;;11.73;100.00
18533;BME280;9396;51.510;11.934;2023-05-02T07:21:41;100882.03;;;11.78;100.00
18533;BME280;9396;51.510;11.934;2023-05-02T07:24:08;100889.16;;;11.77;100.00
18533;BME280;9396;51.510;11.934;2023-05-02T07:26:35;100889.78;;;11.62;100.00
18533;BME280;9396;51.510;11.934;2023-05-02T07:29:02;100902.88;;;11.82;100.00
18533;BME280;9396;51.510;11.934;2023-05-02T07:31:31;100903.66;;;11.93;100.00
18533;BME280;9396;51.510;11.934;2023-05-02T07:33:57;100907.00;;;11.95;100.00
18533;BME280;9396;51.510;11.934;2023-05-02T07:36:24;100909.69;;;12.12;100.00
18533;BME280;9396;51.510;11.934;2023-05-02T07:38:50;100914.25;;;12.02;100.00
18533;BME280;9396;51.510;11.934;2023-05-02T07:41:18;100910.31;;;12.06;100.00
18533;BME280;9396;51.510;11.934;2023-05-02T07:43:45;100916.78;;;12.21;100.00
18533;BME280;9396;51.510;11.934;2023-05-02T07:46:12;100917.25;;;12.17;100.00
18533;BME280;9396;51.510;11.934;2023-05-02T07:48:38;100918.69;;;12.29;100.00
18533;BME280;9396;51.510;11.934;2023-05-02T07:51:09;100793.59;;;11.65;100.00
18533;BME280;9396;51.510;11.934;2023-05-02T07:53:36;100923.66;;;12.41;100.00
18533;BME280;9396;51.510;11.934;2023-05-02T07:56:02;100932.50;;;12.42;100.00
18533;BME280;9396;51.510;11.934;2023-05-02T07:58:31;100923.22;;;12.46;100.00
18533;BME280;9396;51.510;11.934;2023-05-02T08:00:58;100931.50;;;12.60;100.00
18533;BME280;9396;51.510;11.934;2023-05-02T08:03:25;100926.63;;;12.73;100.00
18533;BME280;9396;51.510;11.934;2023-05-02T08:05:52;100928.13;;;12.93;100.00
18533;BME280;9396;51.510;11.934;2023-05-02T08:08:18;100932.44;;;13.12;100.00
18533;BME280;9396;51.510;11.934;2023-05-02T08:10:45;100930.44;;;13.14;100.00
18533;BME280;9396;51.510;11.934;2023-05-02T08:13:12;100935.25;;;13.11;100.00
18533;BME280;9396;51.510;11.934;2023-05-02T08:15:40;100939.41;;;12.87;100.00
18533;BME280;9396;51.510;11.934;2023-05-02T08:18:06;100942.56;;;12.83;100.00
18533;BME280;9396;51.510;11.934;2023-05-02T08:20:33;100939.56;;;12.86;100.00
18533;BME280;9396;51.510;11.934;2023-05-02T08:23:00;100935.75;;;12.88;100.00
18533;BME280;9396;51.510;11.934;2023-05-02T08:25:27;100944.91;;;12.86;100.00
18533;BME280;9396;51.510;11.934;2023-05-02T08:27:54;100946.72;;;12.85;100.00
18533;BME280;9396;51.510;11.934;2023-05-02T08:30:21;100949.91;;;12.89;100.00
18533;BME280;9396;51.510;11.934;2023-05-02T08:32:49;100955.78;;;12.92;100.00
18533;BME280;9396;51.510;11.934;2023-05-02T08:35:16;100961.53;;;12.98;100.00
18533;BME280;9396;51.510;11.934;2023-05-02T08:37:42;100961.44;;;12.89;100.00
18533;BME280;9396;51.510;11.934;2023-05-02T08:40:11;100955.75;;;12.84;100.00
18533;BME280;9396;51.510;11.934;2023-05-02T08:42:40;100956.47;;;12.94;100.00
18533;BME280;9396;51.510;11.934;2023-05-02T08:45:08;100849.63;;;12.43;100.00
18533;BME280;9396;51.510;11.934;2023-05-02T08:47:37;100960.59;;;13.24;100.00
18533;BME280;9396;51.510;11.934;2023-05-02T08:50:08;100963.38;;;13.48;100.00
18533;BME280;9396;51.510;11.934;2023-05-02T08:52:35;100967.59;;;13.51;100.00
18533;BME280;9396;51.510;11.934;2023-05-02T08:55:02;100959.28;;;13.62;100.00
18533;BME280;9396;51.510;11.934;2023-05-02T08:57:29;100967.00;;;13.65;100.00
18533;BME280;9396;51.510;11.934;2023-05-02T08:59:56;100975.13;;;13.55;100.00
18533;BME280;9396;51.510;11.934;2023-05-02T09:02:34;100979.00;;;13.35;100.00
18533;BME280;9396;51.510;11.934;2023-05-02T09:05:07;100977.53;;;13.41;100.00
18533;BME280;9396;51.510;11.934;2023-05-02T09:07:44;100987.88;;;13.36;100.00
18533;BME280;9396;51.510;11.934;2023-05-02T09:10:12;101001.91;;;13.38;100.00
18533;BME280;9396;51.510;11.934;2023-05-02T09:12:38;101000.78;;;13.40;100.00
18533;BME280;9396;51.510;11.934;2023-05-02T09:15:09;100989.97;;;13.50;100.00
18533;BME280;9396;51.510;11.934;2023-05-02T09:17:44;100984.81;;;13.56;100.00
18533;BME280;9396;51.510;11.934;2023-05-02T09:20:13;100984.84;;;13.90;100.00
18533;BME280;9396;51.510;11.934;2023-05-02T09:22:47;100978.47;;;13.99;100.00
18533;BME280;9396;51.510;11.934;2023-05-02T09:25:15;100980.53;;;14.05;98.02
18533;BME280;9396;51.510;11.934;2023-05-02T09:27:49;100986.03;;;14.04;95.87
18533;BME280;9396;51.510;11.934;2023-05-02T09:30:18;100985.25;;;14.11;97.49
18533;BME280;9396;51.510;11.934;2023-05-02T09:32:45;100999.91;;;14.33;99.51
18533;BME280;9396;51.510;11.934;2023-05-02T09:35:13;100996.72;;;14.37;97.66
18533;BME280;9396;51.510;11.934;2023-05-02T09:37:49;101000.63;;;14.59;97.05
18533;BME280;9396;51.510;11.934;2023-05-02T09:40:15;101001.47;;;14.75;96.67
18533;BME280;9396;51.510;11.934;2023-05-02T09:42:42;100997.81;;;14.92;94.93
18533;BME280;9396;51.510;11.934;2023-05-02T09:45:18;100997.81;;;14.92;94.88
18533;BME280;9396;51.510;11.934;2023-05-02T09:47:46;101004.66;;;14.87;91.22
18533;BME280;9396;51.510;11.934;2023-05-02T09:50:30;101013.53;;;14.79;91.82
18533;BME280;9396;51.510;11.934;2023-05-02T09:53:01;101019.03;;;14.78;93.51
18533;BME280;9396;51.510;11.934;2023-05-02T09:55:28;100963.91;;;14.35;95.55
18533;BME280;9396;51.510;11.934;2023-05-02T09:57:54;101020.72;;;14.71;93.91
18533;BME280;9396;51.510;11.934;2023-05-02T10:00:21;101017.03;;;14.64;95.08
18533;BME280;9396;51.510;11.934;2023-05-02T10:02:49;101025.22;;;14.70;96.14
18533;BME280;9396;51.510;11.934;2023-05-02T10:05:17;101019.19;;;14.52;93.14
18533;BME280;9396;51.510;11.934;2023-05-02T10:07:47;101016.50;;;14.60;94.87
18533;BME280;9396;51.510;11.934;2023-05-02T10:10:16;101019.84;;;14.54;93.79
18533;BME280;9396;51.510;11.934;2023-05-02T10:12:44;101019.38;;;14.75;93.31
18533;BME280;9396;51.510;11.934;2023-05-02T10:15:14;101014.88;;;14.83;93.76
18533;BME280;9396;51.510;11.934;2023-05-02T10:17:47;101021.38;;;14.73;94.80
18533;BME280;9396;51.510;11.934;2023-05-02T10:20:21;101029.56;;;14.63;95.95
18533;BME280;9396;51.510;11.934;2023-05-02T10:22:50;101035.41;;;14.59;97.08
18533;BME280;9396;51.510;11.934;2023-05-02T10:25:18;101036.41;;;14.42;99.85
18533;BME280;9396;51.510;11.934;2023-05-02T10:27:45;101040.31;;;14.22;100.00
18533;BME280;9396;51.510;11.934;2023-05-02T10:30:13;101060.38;;;13.92;100.00
18533;BME280;9396;51.510;11.934;2023-05-02T10:32:40;101072.50;;;13.53;100.00
18533;BME280;9396;51.510;11.934;2023-05-02T10:35:09;101074.97;;;13.46;100.00
18533;BME280;9396;51.510;11.934;2023-05-02T10:37:37;101081.34;;;13.28;100.00
18533;BME280;9396;51.510;11.934;2023-05-02T10:40:09;101084.84;;;13.11;100.00
18533;BME280;9396;51.510;11.934;2023-05-02T10:42:37;101089.41;;;13.01;100.00
18533;BME280;9396;51.510;11.934;2023-05-02T10:45:09;101086.47;;;12.94;100.00
18533;BME280;9396;51.510;11.934;2023-05-02T10:47:37;101089.56;;;12.81;100.00
18533;BME280;9396;51.510;11.934;2023-05-02T10:50:04;101099.81;;;12.76;100.00
18533;BME280;9396;51.510;11.934;2023-05-02T10:52:33;101095.63;;;12.56;100.00
18533;BME280;9396;51.510;11.934;2023-05-02T10:55:16;101099.59;;;12.43;100.00
18533;BME280;9396;51.510;11.934;2023-05-02T10:58:20;101091.66;;;12.33;100.00
18533;BME280;9396;51.510;11.934;2023-05-02T11:00:47;101099.34;;;12.09;100.00
18533;BME280;9396;51.510;11.934;2023-05-02T11:03:53;101106.78;;;12.15;100.00
18533;BME280;9396;51.510;11.934;2023-05-02T11:06:20;101107.34;;;12.09;100.00
18533;BME280;9396;51.510;11.934;2023-05-02T11:08:47;101110.38;;;12.24;100.00
18533;BME280;9396;51.510;11.934;2023-05-02T11:11:40;101107.47;;;12.17;100.00
18533;BME280;9396;51.510;11.934;2023-05-02T11:14:07;101117.59;;;12.14;100.00
18533;BME280;9396;51.510;11.934;2023-05-02T11:17:04;101116.34;;;12.08;100.00
18533;BME280;9396;51.510;11.934;2023-05-02T11:22:56;101112.28;;;12.04;100.00
18533;BME280;9396;51.510;11.934;2023-05-02T11:25:31;101112.09;;;12.15;100.00
18533;BME280;9396;51.510;11.934;2023-05-02T11:28:00;101107.50;;;12.08;100.00
18533;BME280;9396;51.510;11.934;2023-05-02T11:30:38;101110.38;;;12.24;100.00
18533;BME280;9396;51.510;11.934;2023-05-02T11:33:15;101111.72;;;12.37;100.00
18533;BME280;9396;51.510;11.934;2023-05-02T11:35:43;101110.41;;;12.51;100.00
18533;BME280;9396;51.510;11.934;2023-05-02T11:38:13;101106.88;;;12.50;100.00
18533;BME280;9396;51.510;11.934;2023-05-02T11:40:40;101105.59;;;12.54;100.00
18533;BME280;9396;51.510;11.934;2023-05-02T11:43:16;101095.53;;;12.66;100.00
18533;BME280;9396;51.510;11.934;2023-05-02T11:45:43;101112.28;;;12.85;100.00
18533;BME280;9396;51.510;11.934;2023-05-02T11:48:11;101115.09;;;12.84;100.00
18533;BME280;9396;51.510;11.934;2023-05-02T11:50:41;101107.09;;;12.84;100.00
18533;BME280;9396;51.510;11.934;2023-05-02T11:53:11;101110.50;;;13.04;100.00
18533;BME280;9396;51.510;11.934;2023-05-02T11:55:44;101116.00;;;13.02;100.00
18533;BME280;9396;51.510;11.934;2023-05-02T11:58:16;101119.19;;;13.06;100.00
18533;BME280;9396;51.510;11.934;2023-05-02T12:00:44;101129.44;;;12.83;100.00
18533;BME280;9396;51.510;11.934;2023-05-02T12:03:26;101136.16;;;12.87;100.00
18533;BME280;9396;51.510;11.934;2023-05-02T12:05:53;101131.13;;;12.84;100.00
18533;BME280;9396;51.510;11.934;2023-05-02T12:08:22;101141.22;;;12.90;100.00
18533;BME280;9396;51.510;11.934;2023-05-02T12:10:50;101138.19;;;12.75;100.00
18533;BME280;9396;51.510;11.934;2023-05-02T12:13:22;101148.34;;;12.72;100.00
18533;BME280;9396;51.510;11.934;2023-05-02T12:15:50;101133.25;;;12.80;100.00
18533;BME280;9396;51.510;11.934;2023-05-02T12:18:18;101146.69;;;12.88;100.00
18533;BME280;9396;51.510;11.934;2023-05-02T12:20:45;101150.56;;;13.04;100.00
18533;BME280;9396;51.510;11.934;2023-05-02T12:23:12;101159.56;;;13.03;100.00
18533;BME280;9396;51.510;11.934;2023-05-02T12:25:40;101165.31;;;12.98;100.00
18533;BME280;9396;51.510;11.934;2023-05-02T12:28:07;101170.66;;;12.98;100.00
18533;BME280;9396;51.510;11.934;2023-05-02T12:30:37;101120.09;;;12.69;99.83
18533;BME280;9396;51.510;11.934;2023-05-02T12:33:05;101181.00;;;13.11;99.75
18533;BME280;9396;51.510;11.934;2023-05-02T12:35:33;101184.75;;;13.18;100.00
18533;BME280;9396;51.510;11.934;2023-05-02T12:38:11;101194.75;;;13.16;99.23
18533;BME280;9396;51.510;11.934;2023-05-02T12:40:44;101181.88;;;13.02;97.80
18533;BME280;9396;51.510;11.934;2023-05-02T12:43:11;101191.75;;;13.01;100.00
18533;BME280;9396;51.510;11.934;2023-05-02T12:45:39;101204.44;;;12.89;98.88
18533;BME280;9396;51.510;11.934;2023-05-02T12:48:33;101207.63;;;12.75;96.89
18533;BME280;9396;51.510;11.934;2023-05-02T12:51:00;101208.41;;;12.85;98.50
18533;BME280;9396;51.510;11.934;2023-05-02T12:53:40;101211.53;;;12.81;97.43
18533;BME280;9396;51.510;11.934;2023-05-02T12:56:08;101214.34;;;12.79;95.93
18533;BME280;9396;51.510;11.934;2023-05-02T12:58:42;101214.03;;;12.82;94.31
18533;BME280;9396;51.510;11.934;2023-05-02T13:01:10;101213.31;;;12.90;93.70